KRDM/RDM METAR and TAF weather

Enter ICAO airport designator
Station Type Date Time Source
KRDM METAR 2019/07/20 04:56 UTC NOAA

KRDM 200456Z AUTO 34011KT 10SM CLR 17/04 A3003 RMK AO2 SLP154 T01720039


Station Type Date Time Source
KRDM Decoded METAR 2019/07/20 04:56 UTC NOAA

REDMOND ROBERTS FIELD, OR, United States (KRDM) 44-15N 121-08W
Jul 20, 2019 - 12:56 AM EDT / 2019.07.20 0456 UTC
Wind: from the NNW (340 degrees) at 13 MPH (11 KT):0
Visibility: 10 mile(s):0
Sky conditions: clear
Temperature: 63.0 F (17.2 C)
Dew Point: 39.0 F (3.9 C)
Relative Humidity: 41%
Pressure (altimeter): 30.03 in. Hg (1016 hPa)
ob: KRDM 200456Z AUTO 34011KT 10SM CLR 17/04 A3003 RMK AO2 SLP154 T01720039
cycle: 5

Station Type Date Time Source
KRDM TAF 2019/07/19 18:24 UTC NOAA

TAF KRDM 191720Z 1918/2018 34008KT P6SM SKC
FM192200 35012G18KT P6SM SKC
FM200400 VRB04KT P6SM SKC

Example: see airport list